KSAT/SAT METAR and TAF weather

Enter ICAO airport designator
Station Type Date Time Source
KSAT METAR 2021/07/24 20:51 UTC NOAA

KSAT 242051Z 17011G18KT 10SM CLR 33/20 A3002 RMK AO2 PK WND 14028/2031 SLP145 T03330200 56019


Station Type Date Time Source
KSAT Decoded METAR 2021/07/24 20:51 UTC NOAA

SAN ANTONIO INTERNATIONAL AIRPORT , TX, United States (KSAT) 29-32N 098-28W 243M
Jul 24, 2021 - 04:51 PM EDT / 2021.07.24 2051 UTC
Wind: from the S (170 degrees) at 13 MPH (11 KT) gusting to 21 MPH (18 KT):0
Visibility: 10 mile(s):0
Sky conditions: clear
Temperature: 91.9 F (33.3 C)
Heat index: 95.7 F (35.4 C):1
Dew Point: 68.0 F (20.0 C)
Relative Humidity: 45%
Pressure (altimeter): 30.02 in. Hg (1016 hPa)
Pressure tendency: 0.06 inches (1.9 hPa) lower than three hours ago
ob: KSAT 242051Z 17011G18KT 10SM CLR 33/20 A3002 RMK AO2 PK WND 14028/2031 SLP145 T03330200 56019
cycle: 21

Station Type Date Time Source
KSAT TAF 2021/07/24 18:42 UTC NOAA

TAF KSAT 241740Z 2418/2524 16014KT P6SM SCT050
FM250100 14011KT P6SM SKC
FM250900 15008KT P6SM SCT015
FM251700 19012KT P6SM SCT050

Example: see airport list